sensor_id;sensor_type;location;lat;lon;timestamp;pressure;altitude;pressure_sealevel;temperature;humidity
51299;BME280;37382;45.192;9.790;2023-12-04T05:04:00;102029.97;;;0.48;100.00
51299;BME280;37382;45.192;9.790;2023-12-04T05:06:28;102032.25;;;0.54;100.00
51299;BME280;37382;45.192;9.790;2023-12-04T05:08:56;102041.03;;;0.56;100.00
51299;BME280;37382;45.192;9.790;2023-12-04T05:11:24;102045.22;;;0.87;100.00
51299;BME280;37382;45.192;9.790;2023-12-04T05:13:51;102050.44;;;1.16;100.00
51299;BME280;37382;45.192;9.790;2023-12-04T05:16:18;102045.75;;;1.33;100.00
51299;BME280;37382;45.192;9.790;2023-12-04T05:18:46;102045.63;;;1.21;100.00
51299;BME280;37382;45.192;9.790;2023-12-04T05:21:14;102054.13;;;1.28;100.00
51299;BME280;37382;45.192;9.790;2023-12-04T05:23:41;102054.97;;;1.29;100.00
51299;BME280;37382;45.192;9.790;2023-12-04T05:26:08;102043.50;;;1.27;100.00
51299;BME280;37382;45.192;9.790;2023-12-04T05:28:36;102042.97;;;1.34;100.00
51299;BME280;37382;45.192;9.790;2023-12-04T05:31:03;102042.09;;;1.21;100.00
51299;BME280;37382;45.192;9.790;2023-12-04T05:33:32;102037.19;;;0.87;100.00
51299;BME280;37382;45.192;9.790;2023-12-04T05:36:00;102041.19;;;1.08;100.00
51299;BME280;37382;45.192;9.790;2023-12-04T05:38:27;102050.41;;;1.03;100.00
51299;BME280;37382;45.192;9.790;2023-12-04T05:40:55;102043.06;;;0.80;100.00
51299;BME280;37382;45.192;9.790;2023-12-04T05:43:22;102042.56;;;0.87;100.00
51299;BME280;37382;45.192;9.790;2023-12-04T05:45:50;102050.19;;;1.06;100.00
51299;BME280;37382;45.192;9.790;2023-12-04T05:48:19;102056.56;;;1.18;100.00
51299;BME280;37382;45.192;9.790;2023-12-04T05:50:46;102052.09;;;1.32;100.00
51299;BME280;37382;45.192;9.790;2023-12-04T05:53:13;102051.66;;;1.25;100.00
51299;BME280;37382;45.192;9.790;2023-12-04T05:55:41;102063.34;;;1.24;100.00
51299;BME280;37382;45.192;9.790;2023-12-04T05:58:09;102058.50;;;1.16;100.00
51299;BME280;37382;45.192;9.790;2023-12-04T06:00:36;102057.03;;;1.25;100.00
51299;BME280;37382;45.192;9.790;2023-12-04T06:03:04;102053.66;;;1.09;100.00
51299;BME280;37382;45.192;9.790;2023-12-04T06:05:31;102055.75;;;1.44;100.00
51299;BME280;37382;45.192;9.790;2023-12-04T06:07:58;102040.72;;;1.41;100.00
51299;BME280;37382;45.192;9.790;2023-12-04T06:10:26;102035.81;;;1.60;100.00
51299;BME280;37382;45.192;9.790;2023-12-04T06:12:53;102025.94;;;1.74;100.00
51299;BME280;37382;45.192;9.790;2023-12-04T06:15:20;102029.03;;;1.55;100.00
51299;BME280;37382;45.192;9.790;2023-12-04T06:17:48;102024.94;;;1.49;100.00
51299;BME280;37382;45.192;9.790;2023-12-04T06:20:15;102015.94;;;1.50;100.00
51299;BME280;37382;45.192;9.790;2023-12-04T06:22:43;102010.16;;;1.56;100.00
51299;BME280;37382;45.192;9.790;2023-12-04T06:25:11;102020.22;;;1.27;100.00
51299;BME280;37382;45.192;9.790;2023-12-04T06:27:39;102030.41;;;1.22;100.00
51299;BME280;37382;45.192;9.790;2023-12-04T06:30:07;102028.75;;;1.06;100.00
51299;BME280;37382;45.192;9.790;2023-12-04T06:32:35;102025.38;;;1.17;100.00
51299;BME280;37382;45.192;9.790;2023-12-04T06:35:03;102030.44;;;1.60;100.00
51299;BME280;37382;45.192;9.790;2023-12-04T06:37:31;102027.44;;;1.52;100.00
51299;BME280;37382;45.192;9.790;2023-12-04T06:40:01;102025.81;;;1.37;100.00
51299;BME280;37382;45.192;9.790;2023-12-04T06:42:30;102018.94;;;1.46;100.00
51299;BME280;37382;45.192;9.790;2023-12-04T06:44:57;102018.31;;;1.68;100.00
51299;BME280;37382;45.192;9.790;2023-12-04T06:47:25;102019.81;;;1.85;100.00
51299;BME280;37382;45.192;9.790;2023-12-04T06:49:53;102020.22;;;1.91;100.00
51299;BME280;37382;45.192;9.790;2023-12-04T06:52:20;102025.78;;;1.88;100.00
51299;BME280;37382;45.192;9.790;2023-12-04T06:54:48;102025.59;;;1.66;100.00
51299;BME280;37382;45.192;9.790;2023-12-04T06:57:15;102025.59;;;1.66;100.00
51299;BME280;37382;45.192;9.790;2023-12-04T06:59:43;102023.47;;;1.58;100.00
51299;BME280;37382;45.192;9.790;2023-12-04T07:02:10;102037.53;;;1.62;100.00
51299;BME280;37382;45.192;9.790;2023-12-04T07:04:38;102040.84;;;1.65;100.00
51299;BME280;37382;45.192;9.790;2023-12-04T07:07:05;102046.41;;;1.49;100.00
51299;BME280;37382;45.192;9.790;2023-12-04T07:09:33;102046.41;;;1.49;100.00
51299;BME280;37382;45.192;9.790;2023-12-04T07:12:01;102046.19;;;1.39;100.00
51299;BME280;37382;45.192;9.790;2023-12-04T07:14:30;102046.22;;;1.65;100.00
51299;BME280;37382;45.192;9.790;2023-12-04T07:16:57;102038.47;;;1.73;100.00
51299;BME280;37382;45.192;9.790;2023-12-04T07:19:24;102056.06;;;1.77;100.00
51299;BME280;37382;45.192;9.790;2023-12-04T07:21:52;102061.84;;;1.84;100.00
51299;BME280;37382;45.192;9.790;2023-12-04T07:24:20;102054.47;;;1.88;100.00
51299;BME280;37382;45.192;9.790;2023-12-04T07:26:48;102050.88;;;2.13;100.00
51299;BME280;37382;45.192;9.790;2023-12-04T07:29:16;102056.91;;;2.04;100.00
51299;BME280;37382;45.192;9.790;2023-12-04T07:31:43;102058.09;;;2.12;100.00
51299;BME280;37382;45.192;9.790;2023-12-04T07:34:11;102050.75;;;2.14;100.00
51299;BME280;37382;45.192;9.790;2023-12-04T07:36:38;102058.38;;;2.21;100.00
51299;BME280;37382;45.192;9.790;2023-12-04T07:39:06;102043.03;;;2.23;100.00
51299;BME280;37382;45.192;9.790;2023-12-04T07:41:34;102037.16;;;2.42;100.00
51299;BME280;37382;45.192;9.790;2023-12-04T07:44:01;102034.53;;;2.29;100.00
51299;BME280;37382;45.192;9.790;2023-12-04T07:46:29;102033.97;;;2.37;100.00
51299;BME280;37382;45.192;9.790;2023-12-04T07:48:57;102018.81;;;2.36;100.00
51299;BME280;37382;45.192;9.790;2023-12-04T07:51:25;102014.66;;;2.31;100.00
51299;BME280;37382;45.192;9.790;2023-12-04T07:53:53;102008.38;;;2.44;100.00
51299;BME280;37382;45.192;9.790;2023-12-04T07:56:20;102007.91;;;2.26;100.00
51299;BME280;37382;45.192;9.790;2023-12-04T07:58:48;101997.38;;;2.23;100.00
51299;BME280;37382;45.192;9.790;2023-12-04T08:01:15;101992.19;;;1.95;100.00
51299;BME280;37382;45.192;9.790;2023-12-04T08:03:43;101998.41;;;2.09;100.00
51299;BME280;37382;45.192;9.790;2023-12-04T08:06:11;102000.41;;;2.18;100.00
51299;BME280;37382;45.192;9.790;2023-12-04T08:08:39;102000.44;;;2.05;100.00
51299;BME280;37382;45.192;9.790;2023-12-04T08:11:09;101999.31;;;2.21;100.00
51299;BME280;37382;45.192;9.790;2023-12-04T08:13:39;102001.50;;;2.40;100.00
51299;BME280;37382;45.192;9.790;2023-12-04T08:16:14;102010.88;;;2.58;100.00
51299;BME280;37382;45.192;9.790;2023-12-04T08:18:46;102007.34;;;2.58;100.00
51299;BME280;37382;45.192;9.790;2023-12-04T08:21:14;102016.25;;;2.82;100.00
51299;BME280;37382;45.192;9.790;2023-12-04T08:23:41;102019.44;;;2.88;100.00
51299;BME280;37382;45.192;9.790;2023-12-04T08:26:09;102031.88;;;2.77;100.00
51299;BME280;37382;45.192;9.790;2023-12-04T08:28:36;102012.88;;;2.92;100.00
51299;BME280;37382;45.192;9.790;2023-12-04T08:31:08;102019.69;;;2.84;100.00
51299;BME280;37382;45.192;9.790;2023-12-04T08:33:36;102024.59;;;2.91;100.00
51299;BME280;37382;45.192;9.790;2023-12-04T08:36:04;102028.50;;;2.87;100.00
51299;BME280;37382;45.192;9.790;2023-12-04T08:38:32;102021.06;;;2.66;100.00
51299;BME280;37382;45.192;9.790;2023-12-04T08:41:00;102027.19;;;2.68;100.00
51299;BME280;37382;45.192;9.790;2023-12-04T08:43:27;102030.44;;;2.60;100.00
51299;BME280;37382;45.192;9.790;2023-12-04T08:45:56;102039.19;;;2.75;100.00
51299;BME280;37382;45.192;9.790;2023-12-04T08:48:23;102024.94;;;2.86;100.00
51299;BME280;37382;45.192;9.790;2023-12-04T08:50:51;102025.13;;;2.96;100.00
51299;BME280;37382;45.192;9.790;2023-12-04T08:53:18;102024.53;;;3.03;100.00
51299;BME280;37382;45.192;9.790;2023-12-04T08:55:45;102021.59;;;3.07;100.00
51299;BME280;37382;45.192;9.790;2023-12-04T08:58:13;102021.44;;;2.97;100.00
51299;BME280;37382;45.192;9.790;2023-12-04T09:00:40;102009.44;;;3.25;100.00
51299;BME280;37382;45.192;9.790;2023-12-04T09:03:11;102000.13;;;3.18;100.00
51299;BME280;37382;45.192;9.790;2023-12-04T09:05:49;101984.97;;;3.17;100.00
51299;BME280;37382;45.192;9.790;2023-12-04T09:08:19;101986.13;;;2.90;100.00
51299;BME280;37382;45.192;9.790;2023-12-04T09:11:02;102004.09;;;2.90;100.00
51299;BME280;37382;45.192;9.790;2023-12-04T09:13:36;102000.06;;;2.95;100.00
51299;BME280;37382;45.192;9.790;2023-12-04T09:16:03;102000.28;;;2.92;100.00
51299;BME280;37382;45.192;9.790;2023-12-04T09:18:31;101996.28;;;2.98;100.00
51299;BME280;37382;45.192;9.790;2023-12-04T09:20:58;101993.00;;;2.70;100.00
51299;BME280;37382;45.192;9.790;2023-12-04T09:23:26;101967.84;;;2.71;100.00
51299;BME280;37382;45.192;9.790;2023-12-04T09:25:55;101967.41;;;2.89;100.00
51299;BME280;37382;45.192;9.790;2023-12-04T09:28:22;101963.31;;;3.07;100.00
51299;BME280;37382;45.192;9.790;2023-12-04T09:30:50;101958.81;;;3.08;100.00
51299;BME280;37382;45.192;9.790;2023-12-04T09:33:18;101941.00;;;3.29;100.00
51299;BME280;37382;45.192;9.790;2023-12-04T09:35:45;101940.88;;;3.42;100.00
51299;BME280;37382;45.192;9.790;2023-12-04T09:38:13;101951.72;;;3.07;100.00
51299;BME280;37382;45.192;9.790;2023-12-04T09:40:40;101956.03;;;3.43;100.00
51299;BME280;37382;45.192;9.790;2023-12-04T09:43:08;101957.50;;;3.25;100.00
51299;BME280;37382;45.192;9.790;2023-12-04T09:45:36;101957.00;;;3.42;100.00
51299;BME280;37382;45.192;9.790;2023-12-04T09:48:05;101965.56;;;3.25;100.00
51299;BME280;37382;45.192;9.790;2023-12-04T09:50:33;101956.56;;;3.60;100.00
51299;BME280;37382;45.192;9.790;2023-12-04T09:53:01;101952.75;;;3.51;100.00
51299;BME280;37382;45.192;9.790;2023-12-04T09:55:30;101945.53;;;3.40;100.00
51299;BME280;37382;45.192;9.790;2023-12-04T09:57:58;101951.16;;;3.60;100.00
51299;BME280;37382;45.192;9.790;2023-12-04T10:00:27;101945.63;;;3.50;100.00
51299;BME280;37382;45.192;9.790;2023-12-04T10:02:55;101957.38;;;3.71;100.00
51299;BME280;37382;45.192;9.790;2023-12-04T10:05:23;101956.03;;;3.54;100.00
51299;BME280;37382;45.192;9.790;2023-12-04T10:07:51;101968.28;;;3.59;100.00
51299;BME280;37382;45.192;9.790;2023-12-04T10:10:18;101963.75;;;3.59;100.00
51299;BME280;37382;45.192;9.790;2023-12-04T10:12:46;101958.25;;;3.49;100.00
51299;BME280;37382;45.192;9.790;2023-12-04T10:15:14;101959.22;;;3.48;100.00
51299;BME280;37382;45.192;9.790;2023-12-04T10:17:42;101954.03;;;3.23;100.00
51299;BME280;37382;45.192;9.790;2023-12-04T10:22:52;101936.53;;;2.94;100.00
51299;BME280;37382;45.192;9.790;2023-12-04T10:25:20;101937.63;;;2.92;100.00
51299;BME280;37382;45.192;9.790;2023-12-04T10:27:49;101935.97;;;3.25;100.00
51299;BME280;37382;45.192;9.790;2023-12-04T10:30:27;101935.25;;;3.45;100.00
51299;BME280;37382;45.192;9.790;2023-12-04T10:33:01;101926.44;;;3.32;100.00
51299;BME280;37382;45.192;9.790;2023-12-04T10:35:31;101924.78;;;2.84;100.00
51299;BME280;37382;45.192;9.790;2023-12-04T10:37:59;101911.66;;;2.68;100.00
51299;BME280;37382;45.192;9.790;2023-12-04T10:40:28;101917.03;;;2.68;100.00
51299;BME280;37382;45.192;9.790;2023-12-04T10:45:36;101923.09;;;2.59;100.00
51299;BME280;37382;45.192;9.790;2023-12-04T10:48:05;101926.69;;;2.46;100.00
51299;BME280;37382;45.192;9.790;2023-12-04T10:50:34;101921.75;;;2.53;100.00
51299;BME280;37382;45.192;9.790;2023-12-04T10:53:06;101917.66;;;2.36;100.00
51299;BME280;37382;45.192;9.790;2023-12-04T10:55:34;101923.25;;;2.33;100.00
51299;BME280;37382;45.192;9.790;2023-12-04T10:58:06;101900.38;;;2.52;100.00
51299;BME280;37382;45.192;9.790;2023-12-04T11:00:35;101899.00;;;2.46;100.00
51299;BME280;37382;45.192;9.790;2023-12-04T11:05:56;101871.25;;;2.70;100.00
51299;BME280;37382;45.192;9.790;2023-12-04T11:08:25;101853.56;;;2.90;100.00
51299;BME280;37382;45.192;9.790;2023-12-04T11:13:29;101852.56;;;2.91;100.00
51299;BME280;37382;45.192;9.790;2023-12-04T11:16:15;101860.25;;;2.73;100.00
51299;BME280;37382;45.192;9.790;2023-12-04T11:18:51;101844.88;;;2.75;100.00
51299;BME280;37382;45.192;9.790;2023-12-04T11:21:20;101845.09;;;2.83;100.00
51299;BME280;37382;45.192;9.790;2023-12-04T11:23:48;101838.78;;;3.18;100.00
51299;BME280;37382;45.192;9.790;2023-12-04T11:26:17;101832.34;;;3.09;100.00
51299;BME280;37382;45.192;9.790;2023-12-04T11:28:45;101829.53;;;3.11;100.00
51299;BME280;37382;45.192;9.790;2023-12-04T11:31:14;101839.50;;;2.86;100.00
51299;BME280;37382;45.192;9.790;2023-12-04T11:33:42;101830.19;;;2.67;100.00
51299;BME280;37382;45.192;9.790;2023-12-04T11:36:15;101834.72;;;2.67;100.00
51299;BME280;37382;45.192;9.790;2023-12-04T11:38:45;101838.13;;;2.58;100.00
51299;BME280;37382;45.192;9.790;2023-12-04T11:43:49;101821.28;;;2.78;100.00
51299;BME280;37382;45.192;9.790;2023-12-04T11:46:20;101823.25;;;2.76;100.00
51299;BME280;37382;45.192;9.790;2023-12-04T11:48:54;101814.22;;;2.89;100.00
51299;BME280;37382;45.192;9.790;2023-12-04T11:51:51;101813.34;;;2.77;100.00
51299;BME280;37382;45.192;9.790;2023-12-04T11:54:22;101799.56;;;2.70;100.00
51299;BME280;37382;45.192;9.790;2023-12-04T11:56:57;101796.63;;;2.73;100.00
51299;BME280;37382;45.192;9.790;2023-12-04T11:59:26;101807.84;;;2.78;100.00
51299;BME280;37382;45.192;9.790;2023-12-04T12:01:55;101799.91;;;2.65;100.00
51299;BME280;37382;45.192;9.790;2023-12-04T12:04:26;101807.81;;;2.56;100.00
51299;BME280;37382;45.192;9.790;2023-12-04T12:06:57;101802.81;;;2.51;100.00
51299;BME280;37382;45.192;9.790;2023-12-04T12:09:25;101804.03;;;2.58;100.00
51299;BME280;37382;45.192;9.790;2023-12-04T12:11:55;101808.44;;;2.59;100.00
51299;BME280;37382;45.192;9.790;2023-12-04T12:14:22;101808.09;;;2.64;100.00
51299;BME280;37382;45.192;9.790;2023-12-04T12:16:50;101816.28;;;2.62;100.00
51299;BME280;37382;45.192;9.790;2023-12-04T12:19:19;101806.44;;;2.39;100.00
51299;BME280;37382;45.192;9.790;2023-12-04T12:21:47;101805.34;;;2.41;100.00
51299;BME280;37382;45.192;9.790;2023-12-04T12:24:16;101802.44;;;2.44;100.00
51299;BME280;37382;45.192;9.790;2023-12-04T12:26:45;101795.41;;;2.77;100.00
51299;BME280;37382;45.192;9.790;2023-12-04T12:29:12;101794.66;;;2.64;100.00
51299;BME280;37382;45.192;9.790;2023-12-04T12:31:40;101795.41;;;3.00;100.00
51299;BME280;37382;45.192;9.790;2023-12-04T12:34:07;101790.25;;;3.19;100.00
51299;BME280;37382;45.192;9.790;2023-12-04T12:36:35;101799.31;;;3.07;100.00
51299;BME280;37382;45.192;9.790;2023-12-04T12:39:03;101801.38;;;2.92;100.00
51299;BME280;37382;45.192;9.790;2023-12-04T12:41:31;101792.34;;;2.93;100.00
51299;BME280;37382;45.192;9.790;2023-12-04T12:44:00;101796.03;;;3.26;100.00
51299;BME280;37382;45.192;9.790;2023-12-04T12:46:28;101797.34;;;3.43;100.00
51299;BME280;37382;45.192;9.790;2023-12-04T12:48:56;101791.19;;;3.52;100.00
51299;BME280;37382;45.192;9.790;2023-12-04T12:51:26;101791.78;;;3.67;100.00
51299;BME280;37382;45.192;9.790;2023-12-04T12:53:56;101792.03;;;3.64;100.00
51299;BME280;37382;45.192;9.790;2023-12-04T12:56:25;101784.28;;;3.71;100.00
51299;BME280;37382;45.192;9.790;2023-12-04T12:58:53;101790.19;;;3.65;100.00
51299;BME280;37382;45.192;9.790;2023-12-04T13:01:23;101789.00;;;3.35;100.00
51299;BME280;37382;45.192;9.790;2023-12-04T13:03:52;101786.03;;;3.61;100.00
51299;BME280;37382;45.192;9.790;2023-12-04T13:06:20;101787.03;;;3.60;100.00
51299;BME280;37382;45.192;9.790;2023-12-04T13:08:47;101788.09;;;3.68;100.00
51299;BME280;37382;45.192;9.790;2023-12-04T13:11:15;101783.91;;;3.20;100.00
51299;BME280;37382;45.192;9.790;2023-12-04T13:13:43;101780.28;;;2.99;100.00
51299;BME280;37382;45.192;9.790;2023-12-04T13:16:11;101780.84;;;3.25;100.00
51299;BME280;37382;45.192;9.790;2023-12-04T13:18:38;101774.59;;;3.36;100.00
51299;BME280;37382;45.192;9.790;2023-12-04T13:21:06;101775.78;;;3.54;100.00
51299;BME280;37382;45.192;9.790;2023-12-04T13:23:37;101775.09;;;3.41;100.00
51299;BME280;37382;45.192;9.790;2023-12-04T13:26:05;101770.59;;;3.19;100.00
51299;BME280;37382;45.192;9.790;2023-12-04T13:28:33;101768.13;;;3.27;100.00
51299;BME280;37382;45.192;9.790;2023-12-04T13:31:10;101768.53;;;3.11;100.00
51299;BME280;37382;45.192;9.790;2023-12-04T13:33:38;101769.28;;;3.02;100.00
51299;BME280;37382;45.192;9.790;2023-12-04T13:36:06;101767.56;;;3.01;100.00
51299;BME280;37382;45.192;9.790;2023-12-04T13:38:34;101768.19;;;2.82;100.00
51299;BME280;37382;45.192;9.790;2023-12-04T13:41:04;101763.41;;;2.85;100.00
51299;BME280;37382;45.192;9.790;2023-12-04T13:43:50;101763.63;;;2.60;100.00
51299;BME280;37382;45.192;9.790;2023-12-04T13:46:19;101766.56;;;2.45;100.00
51299;BME280;37382;45.192;9.790;2023-12-04T13:48:46;101761.84;;;2.13;100.00
51299;BME280;37382;45.192;9.790;2023-12-04T13:51:14;101755.78;;;2.34;100.00
51299;BME280;37382;45.192;9.790;2023-12-04T13:53:41;101764.53;;;2.13;100.00
51299;BME280;37382;45.192;9.790;2023-12-04T13:56:16;101753.13;;;1.99;100.00
51299;BME280;37382;45.192;9.790;2023-12-04T13:59:02;101755.34;;;2.16;100.00
51299;BME280;37382;45.192;9.790;2023-12-04T14:01:32;101750.63;;;2.20;100.00
51299;BME280;37382;45.192;9.790;2023-12-04T14:03:59;101750.22;;;2.02;100.00
51299;BME280;37382;45.192;9.790;2023-12-04T14:06:30;101757.28;;;2.03;100.00
51299;BME280;37382;45.192;9.790;2023-12-04T14:08:59;101749.31;;;1.90;100.00
51299;BME280;37382;45.192;9.790;2023-12-04T14:11:27;101742.50;;;1.97;100.00
51299;BME280;37382;45.192;9.790;2023-12-04T14:13:54;101744.59;;;2.05;100.00
51299;BME280;37382;45.192;9.790;2023-12-04T14:16:22;101742.97;;;1.91;100.00
51299;BME280;37382;45.192;9.790;2023-12-04T14:18:49;101748.03;;;1.83;100.00
51299;BME280;37382;45.192;9.790;2023-12-04T14:21:17;101742.38;;;1.63;100.00
51299;BME280;37382;45.192;9.790;2023-12-04T14:23:44;101740.66;;;1.62;100.00
51299;BME280;37382;45.192;9.790;2023-12-04T14:26:12;101741.28;;;1.66;100.00
51299;BME280;37382;45.192;9.790;2023-12-04T14:28:40;101746.41;;;1.69;100.00
51299;BME280;37382;45.192;9.790;2023-12-04T14:31:10;101739.59;;;1.65;100.00
51299;BME280;37382;45.192;9.790;2023-12-04T14:33:38;101735.63;;;1.82;100.00
51299;BME280;37382;45.192;9.790;2023-12-04T14:36:10;101735.63;;;1.82;100.00
51299;BME280;37382;45.192;9.790;2023-12-04T14:38:39;101730.09;;;1.72;100.00
51299;BME280;37382;45.192;9.790;2023-12-04T14:41:07;101719.53;;;1.57;100.00
51299;BME280;37382;45.192;9.790;2023-12-04T14:43:36;101725.88;;;1.56;100.00
51299;BME280;37382;45.192;9.790;2023-12-04T14:46:06;101719.19;;;1.62;100.00
51299;BME280;37382;45.192;9.790;2023-12-04T14:48:39;101713.03;;;1.73;100.00
51299;BME280;37382;45.192;9.790;2023-12-04T14:51:09;101716.03;;;2.04;100.00
51299;BME280;37382;45.192;9.790;2023-12-04T14:53:39;101713.03;;;2.20;100.00
51299;BME280;37382;45.192;9.790;2023-12-04T14:56:11;101706.78;;;2.19;100.00
51299;BME280;37382;45.192;9.790;2023-12-04T14:59:00;101700.09;;;2.25;100.00
51299;BME280;37382;45.192;9.790;2023-12-04T15:01:56;101688.91;;;2.54;100.00
51299;BME280;37382;45.192;9.790;2023-12-04T15:04:24;101686.16;;;2.08;100.00
51299;BME280;37382;45.192;9.790;2023-12-04T15:06:52;101673.81;;;1.94;100.00
51299;BME280;37382;45.192;9.790;2023-12-04T15:09:25;101677.38;;;1.95;100.00
51299;BME280;37382;45.192;9.790;2023-12-04T15:12:00;101683.09;;;1.90;100.00
51299;BME280;37382;45.192;9.790;2023-12-04T15:15:03;101679.47;;;2.03;100.00
51299;BME280;37382;45.192;9.790;2023-12-04T15:17:49;101677.38;;;2.18;100.00
51299;BME280;37382;45.192;9.790;2023-12-04T15:20:23;101669.25;;;2.42;100.00
51299;BME280;37382;45.192;9.790;2023-12-04T15:22:54;101658.97;;;2.36;100.00
51299;BME280;37382;45.192;9.790;2023-12-04T15:25:22;101651.78;;;2.47;100.00
51299;BME280;37382;45.192;9.790;2023-12-04T15:27:50;101647.13;;;2.49;100.00
51299;BME280;37382;45.192;9.790;2023-12-04T15:30:18;101638.00;;;2.52;100.00
51299;BME280;37382;45.192;9.790;2023-12-04T15:32:45;101627.25;;;2.63;100.00
51299;BME280;37382;45.192;9.790;2023-12-04T15:35:13;101624.78;;;2.60;100.00
51299;BME280;37382;45.192;9.790;2023-12-04T15:37:41;101629.47;;;2.47;100.00
51299;BME280;37382;45.192;9.790;2023-12-04T15:40:09;101626.50;;;2.39;100.00
51299;BME280;37382;45.192;9.790;2023-12-04T15:42:38;101626.88;;;2.34;100.00
51299;BME280;37382;45.192;9.790;2023-12-04T15:45:06;101625.66;;;2.16;100.00
51299;BME280;37382;45.192;9.790;2023-12-04T15:47:34;101628.13;;;2.30;100.00
51299;BME280;37382;45.192;9.790;2023-12-04T15:50:03;101635.78;;;2.23;100.00
51299;BME280;37382;45.192;9.790;2023-12-04T15:52:34;101630.19;;;2.26;100.00
51299;BME280;37382;45.192;9.790;2023-12-04T15:55:07;101647.50;;;2.22;100.00
51299;BME280;37382;45.192;9.790;2023-12-04T15:57:38;101655.66;;;2.21;100.00
51299;BME280;37382;45.192;9.790;2023-12-04T16:00:06;101661.53;;;2.14;100.00
51299;BME280;37382;45.192;9.790;2023-12-04T16:02:40;101651.50;;;2.05;100.00
51299;BME280;37382;45.192;9.790;2023-12-04T16:05:08;101651.91;;;2.12;100.00
51299;BME280;37382;45.192;9.790;2023-12-04T16:07:38;101658.03;;;2.37;100.00
51299;BME280;37382;45.192;9.790;2023-12-04T16:10:06;101644.97;;;2.32;100.00
51299;BME280;37382;45.192;9.790;2023-12-04T16:12:35;101644.81;;;2.45;100.00
51299;BME280;37382;45.192;9.790;2023-12-04T16:15:08;101644.47;;;2.38;100.00
51299;BME280;37382;45.192;9.790;2023-12-04T16:17:36;101643.97;;;2.56;100.00
51299;BME280;37382;45.192;9.790;2023-12-04T16:20:06;101637.88;;;2.42;100.00
51299;BME280;37382;45.192;9.790;2023-12-04T16:22:41;101638.13;;;2.39;100.00
51299;BME280;37382;45.192;9.790;2023-12-04T16:25:11;101632.25;;;2.34;100.00
51299;BME280;37382;45.192;9.790;2023-12-04T16:27:45;101633.25;;;2.44;100.00
51299;BME280;37382;45.192;9.790;2023-12-04T16:30:13;101629.47;;;2.47;100.00
51299;BME280;37382;45.192;9.790;2023-12-04T16:32:41;101636.66;;;2.58;100.00
51299;BME280;37382;45.192;9.790;2023-12-04T16:35:08;101633.09;;;2.57;100.00
51299;BME280;37382;45.192;9.790;2023-12-04T16:37:36;101636.66;;;2.58;100.00
51299;BME280;37382;45.192;9.790;2023-12-04T16:40:07;101636.41;;;2.38;100.00
51299;BME280;37382;45.192;9.790;2023-12-04T16:42:35;101633.34;;;2.43;100.00
51299;BME280;37382;45.192;9.790;2023-12-04T16:45:03;101625.91;;;2.46;100.00
51299;BME280;37382;45.192;9.790;2023-12-04T16:47:31;101624.94;;;2.36;100.00
51299;BME280;37382;45.192;9.790;2023-12-04T16:49:59;101621.75;;;2.08;100.00
51299;BME280;37382;45.192;9.790;2023-12-04T16:52:26;101636.97;;;1.85;100.00
51299;BME280;37382;45.192;9.790;2023-12-04T16:54:55;101636.72;;;1.77;100.00
51299;BME280;37382;45.192;9.790;2023-12-04T16:57:23;101644.19;;;1.96;100.00
51299;BME280;37382;45.192;9.790;2023-12-04T16:59:52;101635.59;;;1.80;100.00
51299;BME280;37382;45.192;9.790;2023-12-04T17:02:21;101640.22;;;1.66;100.00
51299;BME280;37382;45.192;9.790;2023-12-04T17:04:49;101639.69;;;1.61;100.00
51299;BME280;37382;45.192;9.790;2023-12-04T17:07:16;101638.91;;;1.48;100.00
51299;BME280;37382;45.192;9.790;2023-12-04T17:09:44;101627.06;;;1.63;100.00
51299;BME280;37382;45.192;9.790;2023-12-04T17:12:11;101630.47;;;1.65;100.00
51299;BME280;37382;45.192;9.790;2023-12-04T17:14:40;101621.88;;;1.49;100.00
51299;BME280;37382;45.192;9.790;2023-12-04T17:17:08;101622.00;;;1.47;100.00
51299;BME280;37382;45.192;9.790;2023-12-04T17:19:35;101622.09;;;1.46;100.00
51299;BME280;37382;45.192;9.790;2023-12-04T17:22:03;101626.22;;;1.38;100.00
51299;BME280;37382;45.192;9.790;2023-12-04T17:24:31;101627.69;;;1.42;100.00
51299;BME280;37382;45.192;9.790;2023-12-04T17:26:58;101633.06;;;1.18;100.00
51299;BME280;37382;45.192;9.790;2023-12-04T17:29:26;101625.94;;;1.06;100.00
51299;BME280;37382;45.192;9.790;2023-12-04T17:31:55;101623.88;;;1.34;100.00
51299;BME280;37382;45.192;9.790;2023-12-04T17:34:22;101630.22;;;1.33;100.00
51299;BME280;37382;45.192;9.790;2023-12-04T17:36:51;101623.66;;;1.37;100.00
51299;BME280;37382;45.192;9.790;2023-12-04T17:39:19;101623.28;;;1.30;100.00
51299;BME280;37382;45.192;9.790;2023-12-04T17:41:46;101625.59;;;1.35;100.00
51299;BME280;37382;45.192;9.790;2023-12-04T17:44:14;101621.97;;;1.36;100.00
51299;BME280;37382;45.192;9.790;2023-12-04T17:46:41;101627.78;;;1.30;100.00
51299;BME280;37382;45.192;9.790;2023-12-04T17:49:09;101626.53;;;1.58;100.00
51299;BME280;37382;45.192;9.790;2023-12-04T17:51:39;101629.38;;;1.68;100.00
51299;BME280;37382;45.192;9.790;2023-12-04T17:54:07;101621.44;;;1.66;100.00
51299;BME280;37382;45.192;9.790;2023-12-04T17:56:34;101630.59;;;1.75;100.00
51299;BME280;37382;45.192;9.790;2023-12-04T17:59:02;101633.72;;;1.57;100.00
51299;BME280;37382;45.192;9.790;2023-12-04T18:01:30;101629.56;;;1.53;100.00
51299;BME280;37382;45.192;9.790;2023-12-04T18:03:58;101622.00;;;1.47;100.00
51299;BME280;37382;45.192;9.790;2023-12-04T18:06:30;101612.81;;;1.38;100.00
51299;BME280;37382;45.192;9.790;2023-12-04T18:08:59;101616.28;;;1.52;100.00
51299;BME280;37382;45.192;9.790;2023-12-04T18:11:26;101615.91;;;1.56;100.00
51299;BME280;37382;45.192;9.790;2023-12-04T18:13:54;101618.09;;;1.51;100.00
51299;BME280;37382;45.192;9.790;2023-12-04T18:16:21;101620.31;;;1.57;100.00